sensor_id;sensor_type;location;lat;lon;timestamp;pressure;altitude;pressure_sealevel;temperature;humidity
66801;BME280;53703;50.326;19.122;2023-04-03T00:02:07;99057.55;;;18.69;42.43
66801;BME280;53703;50.326;19.122;2023-04-03T00:05:01;99063.59;;;18.70;42.39
66801;BME280;53703;50.326;19.122;2023-04-03T00:07:55;99064.32;;;18.68;42.29
66801;BME280;53703;50.326;19.122;2023-04-03T00:10:49;99062.21;;;18.69;42.36
66801;BME280;53703;50.326;19.122;2023-04-03T00:13:43;99063.02;;;18.67;42.45
66801;BME280;53703;50.326;19.122;2023-04-03T00:16:37;99066.59;;;18.68;42.25
66801;BME280;53703;50.326;19.122;2023-04-03T00:19:31;99067.05;;;18.67;42.50
66801;BME280;53703;50.326;19.122;2023-04-03T00:22:25;99064.52;;;18.70;42.44
66801;BME280;53703;50.326;19.122;2023-04-03T00:25:19;99066.34;;;18.67;42.29
66801;BME280;53703;50.326;19.122;2023-04-03T00:28:13;99067.15;;;18.68;42.56
66801;BME280;53703;50.326;19.122;2023-04-03T00:31:07;99070.79;;;18.66;42.32
66801;BME280;53703;50.326;19.122;2023-04-03T00:34:01;99070.59;;;18.66;42.72
66801;BME280;53703;50.326;19.122;2023-04-03T00:36:55;99070.64;;;18.66;42.52
66801;BME280;53703;50.326;19.122;2023-04-03T00:39:49;99067.77;;;18.67;42.53
66801;BME280;53703;50.326;19.122;2023-04-03T00:42:44;99070.48;;;18.66;42.42
66801;BME280;53703;50.326;19.122;2023-04-03T00:45:41;99071.22;;;18.67;42.48
66801;BME280;53703;50.326;19.122;2023-04-03T00:48:38;99069.46;;;18.70;42.31
66801;BME280;53703;50.326;19.122;2023-04-03T00:51:32;99068.62;;;18.69;42.31
66801;BME280;53703;50.326;19.122;2023-04-03T00:54:27;99065.69;;;18.69;42.35
66801;BME280;53703;50.326;19.122;2023-04-03T00:57:22;99071.00;;;18.65;42.38
66801;BME280;53703;50.326;19.122;2023-04-03T01:00:20;99069.98;;;18.68;42.11
66801;BME280;53703;50.326;19.122;2023-04-03T01:02:57;99073.27;;;18.69;42.23
66801;BME280;53703;50.326;19.122;2023-04-03T01:05:52;99071.73;;;18.68;42.26
66801;BME280;53703;50.326;19.122;2023-04-03T01:08:46;99076.95;;;18.68;42.15
66801;BME280;53703;50.326;19.122;2023-04-03T01:11:42;99078.32;;;18.67;42.26
66801;BME280;53703;50.326;19.122;2023-04-03T01:14:35;99084.19;;;18.65;42.30
66801;BME280;53703;50.326;19.122;2023-04-03T01:17:35;99084.38;;;18.66;42.32
66801;BME280;53703;50.326;19.122;2023-04-03T01:24:56;99086.64;;;18.67;42.26
66801;BME280;53703;50.326;19.122;2023-04-03T01:27:50;99084.30;;;18.66;42.41
66801;BME280;53703;50.326;19.122;2023-04-03T01:31:08;99088.06;;;18.67;42.22
66801;BME280;53703;50.326;19.122;2023-04-03T01:34:04;99091.33;;;18.66;42.34
66801;BME280;53703;50.326;19.122;2023-04-03T01:36:58;99092.17;;;18.67;42.34
66801;BME280;53703;50.326;19.122;2023-04-03T01:39:52;99095.45;;;18.66;42.35
66801;BME280;53703;50.326;19.122;2023-04-03T01:42:45;99095.64;;;18.67;42.32
66801;BME280;53703;50.326;19.122;2023-04-03T01:45:39;99099.48;;;18.68;42.22
66801;BME280;53703;50.326;19.122;2023-04-03T01:48:33;99101.36;;;18.66;42.47
66801;BME280;53703;50.326;19.122;2023-04-03T01:51:27;99101.56;;;18.65;42.28
66801;BME280;53703;50.326;19.122;2023-04-03T01:54:20;99101.22;;;18.66;42.51
66801;BME280;53703;50.326;19.122;2023-04-03T01:57:14;99104.73;;;18.65;42.19
66801;BME280;53703;50.326;19.122;2023-04-03T02:00:11;99108.06;;;18.65;42.25
66801;BME280;53703;50.326;19.122;2023-04-03T02:03:06;99107.52;;;18.66;42.16
66801;BME280;53703;50.326;19.122;2023-04-03T02:06:00;99113.99;;;18.64;42.50
66801;BME280;53703;50.326;19.122;2023-04-03T02:08:54;99118.77;;;18.65;42.35
66801;BME280;53703;50.326;19.122;2023-04-03T02:11:47;99113.86;;;18.64;42.53
66801;BME280;53703;50.326;19.122;2023-04-03T02:14:41;99115.98;;;18.66;42.36
66801;BME280;53703;50.326;19.122;2023-04-03T02:17:35;99111.83;;;18.64;42.42
66801;BME280;53703;50.326;19.122;2023-04-03T02:20:29;99114.40;;;18.64;42.28
66801;BME280;53703;50.326;19.122;2023-04-03T02:23:23;99110.66;;;18.65;42.27
66801;BME280;53703;50.326;19.122;2023-04-03T02:26:18;99114.92;;;18.65;42.29
66801;BME280;53703;50.326;19.122;2023-04-03T02:29:12;99117.20;;;18.65;42.29
66801;BME280;53703;50.326;19.122;2023-04-03T02:32:06;99115.95;;;18.63;42.33
66801;BME280;53703;50.326;19.122;2023-04-03T02:35:00;99122.66;;;18.63;42.24
66801;BME280;53703;50.326;19.122;2023-04-03T02:37:53;99120.48;;;18.71;42.34
66801;BME280;53703;50.326;19.122;2023-04-03T02:40:48;99126.90;;;18.82;42.15
66801;BME280;53703;50.326;19.122;2023-04-03T02:43:41;99124.39;;;18.65;42.12
66801;BME280;53703;50.326;19.122;2023-04-03T02:46:35;99119.23;;;18.62;42.37
66801;BME280;53703;50.326;19.122;2023-04-03T02:49:29;99121.89;;;18.61;42.31
66801;BME280;53703;50.326;19.122;2023-04-03T02:52:23;99118.27;;;18.59;42.48
66801;BME280;53703;50.326;19.122;2023-04-03T02:55:17;99120.39;;;18.58;42.44
66801;BME280;53703;50.326;19.122;2023-04-03T02:58:11;99121.50;;;18.58;42.34
66801;BME280;53703;50.326;19.122;2023-04-03T03:01:05;99122.92;;;18.58;42.18
66801;BME280;53703;50.326;19.122;2023-04-03T03:03:59;99125.18;;;18.57;42.55
66801;BME280;53703;50.326;19.122;2023-04-03T03:06:53;99127.85;;;18.60;42.32
66801;BME280;53703;50.326;19.122;2023-04-03T03:09:47;99128.84;;;18.58;42.36
66801;BME280;53703;50.326;19.122;2023-04-03T03:12:41;99126.74;;;18.55;42.18
66801;BME280;53703;50.326;19.122;2023-04-03T03:15:34;99127.48;;;18.55;42.40
66801;BME280;53703;50.326;19.122;2023-04-03T03:18:28;99128.94;;;18.52;42.39
66801;BME280;53703;50.326;19.122;2023-04-03T03:21:23;99129.85;;;18.53;42.46
66801;BME280;53703;50.326;19.122;2023-04-03T03:24:17;99133.27;;;18.53;42.20
66801;BME280;53703;50.326;19.122;2023-04-03T03:27:10;99133.30;;;18.52;42.33
66801;BME280;53703;50.326;19.122;2023-04-03T03:30:06;99137.99;;;18.51;42.32
66801;BME280;53703;50.326;19.122;2023-04-03T03:33:00;99145.11;;;18.52;42.32
66801;BME280;53703;50.326;19.122;2023-04-03T03:35:55;99142.52;;;18.52;42.31
66801;BME280;53703;50.326;19.122;2023-04-03T03:38:49;99147.58;;;18.52;42.15
66801;BME280;53703;50.326;19.122;2023-04-03T03:41:43;99148.64;;;18.53;41.95
66801;BME280;53703;50.326;19.122;2023-04-03T03:44:37;99152.59;;;18.53;42.11
66801;BME280;53703;50.326;19.122;2023-04-03T03:47:31;99153.33;;;18.49;41.98
66801;BME280;53703;50.326;19.122;2023-04-03T03:50:10;99154.56;;;18.51;42.08
66801;BME280;53703;50.326;19.122;2023-04-03T03:53:04;99153.90;;;18.50;42.05
66801;BME280;53703;50.326;19.122;2023-04-03T03:55:57;99159.01;;;18.54;41.93
66801;BME280;53703;50.326;19.122;2023-04-03T03:58:51;99155.17;;;18.51;41.85
66801;BME280;53703;50.326;19.122;2023-04-03T04:01:45;99161.71;;;18.50;42.03
66801;BME280;53703;50.326;19.122;2023-04-03T04:04:39;99163.97;;;18.49;41.97
66801;BME280;53703;50.326;19.122;2023-04-03T04:07:33;99162.91;;;18.48;41.88
66801;BME280;53703;50.326;19.122;2023-04-03T04:10:26;99164.15;;;18.47;41.97
66801;BME280;53703;50.326;19.122;2023-04-03T04:13:20;99159.94;;;18.51;42.15
66801;BME280;53703;50.326;19.122;2023-04-03T04:16:14;99161.70;;;18.50;41.91
66801;BME280;53703;50.326;19.122;2023-04-03T04:19:08;99166.75;;;18.47;42.15
66801;BME280;53703;50.326;19.122;2023-04-03T04:22:03;99170.41;;;18.52;42.47
66801;BME280;53703;50.326;19.122;2023-04-03T04:24:56;99174.30;;;18.51;42.18
66801;BME280;53703;50.326;19.122;2023-04-03T04:27:50;99178.23;;;18.50;42.19
66801;BME280;53703;50.326;19.122;2023-04-03T04:30:44;99179.23;;;18.50;42.10
66801;BME280;53703;50.326;19.122;2023-04-03T04:33:38;99183.52;;;18.51;42.09
66801;BME280;53703;50.326;19.122;2023-04-03T04:36:32;99184.55;;;18.51;42.11
66801;BME280;53703;50.326;19.122;2023-04-03T04:39:26;99182.44;;;18.49;42.04
66801;BME280;53703;50.326;19.122;2023-04-03T04:42:19;99188.38;;;18.50;42.04
66801;BME280;53703;50.326;19.122;2023-04-03T04:45:13;99192.55;;;18.51;41.91
66801;BME280;53703;50.326;19.122;2023-04-03T04:48:08;99193.30;;;18.50;41.78
66801;BME280;53703;50.326;19.122;2023-04-03T04:51:02;99195.42;;;18.50;41.98
66801;BME280;53703;50.326;19.122;2023-04-03T04:53:56;99201.19;;;18.54;41.69
66801;BME280;53703;50.326;19.122;2023-04-03T04:56:49;99207.71;;;18.51;41.86
66801;BME280;53703;50.326;19.122;2023-04-03T04:59:43;99213.02;;;18.49;41.96
66801;BME280;53703;50.326;19.122;2023-04-03T05:02:37;99217.98;;;18.51;41.70
66801;BME280;53703;50.326;19.122;2023-04-03T05:05:31;99222.52;;;18.52;41.67
66801;BME280;53703;50.326;19.122;2023-04-03T05:08:25;99222.92;;;18.50;41.81
66801;BME280;53703;50.326;19.122;2023-04-03T05:11:19;99226.32;;;18.50;41.72
66801;BME280;53703;50.326;19.122;2023-04-03T05:14:17;99229.81;;;18.51;41.69
66801;BME280;53703;50.326;19.122;2023-04-03T05:17:11;99232.13;;;18.51;41.59
66801;BME280;53703;50.326;19.122;2023-04-03T05:20:06;99232.55;;;18.54;41.54
66801;BME280;53703;50.326;19.122;2023-04-03T05:23:00;99235.82;;;18.53;41.57
66801;BME280;53703;50.326;19.122;2023-04-03T05:25:54;99243.86;;;18.51;41.54
66801;BME280;53703;50.326;19.122;2023-04-03T05:28:48;99247.63;;;18.52;41.61
66801;BME280;53703;50.326;19.122;2023-04-03T05:31:42;99244.86;;;18.52;41.54
66801;BME280;53703;50.326;19.122;2023-04-03T05:34:36;99246.98;;;18.52;41.35
66801;BME280;53703;50.326;19.122;2023-04-03T05:37:29;99253.81;;;18.48;41.57
66801;BME280;53703;50.326;19.122;2023-04-03T05:40:23;99256.84;;;18.51;41.21
66801;BME280;53703;50.326;19.122;2023-04-03T05:43:18;99255.63;;;18.53;41.36
66801;BME280;53703;50.326;19.122;2023-04-03T05:46:15;99253.70;;;18.50;41.41
66801;BME280;53703;50.326;19.122;2023-04-03T05:49:09;99255.93;;;18.48;41.43
66801;BME280;53703;50.326;19.122;2023-04-03T05:52:03;99259.06;;;18.45;41.55
66801;BME280;53703;50.326;19.122;2023-04-03T05:54:57;99257.70;;;18.45;41.58
66801;BME280;53703;50.326;19.122;2023-04-03T05:57:51;99259.42;;;18.44;41.50
66801;BME280;53703;50.326;19.122;2023-04-03T06:00:45;99261.96;;;18.46;41.48
66801;BME280;53703;50.326;19.122;2023-04-03T06:03:38;99262.42;;;18.44;41.42
66801;BME280;53703;50.326;19.122;2023-04-03T06:06:49;99267.89;;;18.47;41.31
66801;BME280;53703;50.326;19.122;2023-04-03T06:09:43;99265.67;;;18.45;41.45
66801;BME280;53703;50.326;19.122;2023-04-03T06:12:36;99269.62;;;18.42;41.41
66801;BME280;53703;50.326;19.122;2023-04-03T06:15:30;99269.65;;;18.43;41.24
66801;BME280;53703;50.326;19.122;2023-04-03T06:18:21;99276.05;;;18.43;41.32
66801;BME280;53703;50.326;19.122;2023-04-03T06:21:14;99278.52;;;18.33;41.17
66801;BME280;53703;50.326;19.122;2023-04-03T06:24:09;99280.50;;;18.40;41.85
66801;BME280;53703;50.326;19.122;2023-04-03T06:27:03;99283.84;;;18.41;41.82
66801;BME280;53703;50.326;19.122;2023-04-03T06:29:57;99281.83;;;18.40;41.56
66801;BME280;53703;50.326;19.122;2023-04-03T06:32:50;99282.05;;;18.41;41.59
66801;BME280;53703;50.326;19.122;2023-04-03T06:35:45;99285.48;;;18.42;41.70
66801;BME280;53703;50.326;19.122;2023-04-03T06:38:38;99290.30;;;18.42;41.63
66801;BME280;53703;50.326;19.122;2023-04-03T06:41:33;99288.48;;;18.42;41.58
66801;BME280;53703;50.326;19.122;2023-04-03T06:44:28;99291.85;;;18.44;41.55
66801;BME280;53703;50.326;19.122;2023-04-03T06:47:22;99293.92;;;18.38;41.75
66801;BME280;53703;50.326;19.122;2023-04-03T06:50:15;99296.23;;;18.38;41.56
66801;BME280;53703;50.326;19.122;2023-04-03T06:53:10;99303.00;;;18.40;41.53
66801;BME280;53703;50.326;19.122;2023-04-03T06:56:05;99309.55;;;18.38;41.73
66801;BME280;53703;50.326;19.122;2023-04-03T06:58:58;99314.38;;;18.40;41.66
66801;BME280;53703;50.326;19.122;2023-04-03T07:01:53;99315.54;;;18.38;41.72
66801;BME280;53703;50.326;19.122;2023-04-03T07:04:47;99317.13;;;18.38;41.69
66801;BME280;53703;50.326;19.122;2023-04-03T07:07:41;99323.64;;;18.37;41.66
66801;BME280;53703;50.326;19.122;2023-04-03T07:10:35;99330.40;;;18.36;41.53
66801;BME280;53703;50.326;19.122;2023-04-03T07:13:20;99328.98;;;18.36;41.57
66801;BME280;53703;50.326;19.122;2023-04-03T07:16:14;99336.00;;;18.34;41.67
66801;BME280;53703;50.326;19.122;2023-04-03T07:19:09;99341.73;;;18.35;41.68
66801;BME280;53703;50.326;19.122;2023-04-03T07:22:02;99346.02;;;18.33;41.70
66801;BME280;53703;50.326;19.122;2023-04-03T07:24:56;99352.12;;;18.34;41.72
66801;BME280;53703;50.326;19.122;2023-04-03T07:27:51;99353.23;;;18.37;41.72
66801;BME280;53703;50.326;19.122;2023-04-03T07:30:49;99351.69;;;18.36;41.58
66801;BME280;53703;50.326;19.122;2023-04-03T07:33:34;99357.02;;;18.32;41.64
66801;BME280;53703;50.326;19.122;2023-04-03T07:36:28;99352.92;;;18.32;41.53
66801;BME280;53703;50.326;19.122;2023-04-03T07:39:25;99353.30;;;18.30;41.78
66801;BME280;53703;50.326;19.122;2023-04-03T07:42:20;99351.87;;;18.34;41.51
66801;BME280;53703;50.326;19.122;2023-04-03T07:45:14;99354.52;;;18.32;41.53
66801;BME280;53703;50.326;19.122;2023-04-03T07:48:10;99355.51;;;18.34;41.14
66801;BME280;53703;50.326;19.122;2023-04-03T07:51:05;99358.30;;;18.43;41.13
66801;BME280;53703;50.326;19.122;2023-04-03T07:53:59;99355.73;;;18.54;41.33
66801;BME280;53703;50.326;19.122;2023-04-03T07:56:53;99365.02;;;18.47;41.53
66801;BME280;53703;50.326;19.122;2023-04-03T07:59:47;99365.07;;;18.44;42.34
66801;BME280;53703;50.326;19.122;2023-04-03T08:02:40;99362.57;;;18.39;42.36
66801;BME280;53703;50.326;19.122;2023-04-03T08:05:37;99358.34;;;18.33;42.56
66801;BME280;53703;50.326;19.122;2023-04-03T08:08:31;99356.20;;;18.36;42.45
66801;BME280;53703;50.326;19.122;2023-04-03T08:11:26;99356.35;;;18.39;42.27
66801;BME280;53703;50.326;19.122;2023-04-03T08:14:19;99352.92;;;18.51;42.59
66801;BME280;53703;50.326;19.122;2023-04-03T08:17:13;99355.55;;;18.57;41.89
66801;BME280;53703;50.326;19.122;2023-04-03T08:20:09;99355.90;;;18.60;41.87
66801;BME280;53703;50.326;19.122;2023-04-03T08:23:03;99361.11;;;18.45;40.12
66801;BME280;53703;50.326;19.122;2023-04-03T08:25:57;99360.42;;;15.12;40.51
66801;BME280;53703;50.326;19.122;2023-04-03T08:28:51;99359.72;;;17.66;40.26
66801;BME280;53703;50.326;19.122;2023-04-03T08:31:44;99365.27;;;18.11;41.30
66801;BME280;53703;50.326;19.122;2023-04-03T08:34:38;99368.18;;;18.11;43.09
66801;BME280;53703;50.326;19.122;2023-04-03T08:37:34;99369.59;;;18.15;42.73
66801;BME280;53703;50.326;19.122;2023-04-03T08:40:28;99373.16;;;18.27;41.19
66801;BME280;53703;50.326;19.122;2023-04-03T08:43:36;99373.19;;;18.29;40.45
66801;BME280;53703;50.326;19.122;2023-04-03T08:46:45;99377.30;;;18.27;40.90
66801;BME280;53703;50.326;19.122;2023-04-03T08:49:44;99381.64;;;18.24;42.01
66801;BME280;53703;50.326;19.122;2023-04-03T08:52:44;99384.29;;;18.27;42.11
66801;BME280;53703;50.326;19.122;2023-04-03T08:55:42;99384.16;;;18.25;41.72
66801;BME280;53703;50.326;19.122;2023-04-03T08:58:43;99383.38;;;18.22;40.96
66801;BME280;53703;50.326;19.122;2023-04-03T09:01:40;99383.81;;;18.20;40.43
66801;BME280;53703;50.326;19.122;2023-04-03T09:04:34;99384.84;;;18.21;41.67
66801;BME280;53703;50.326;19.122;2023-04-03T09:07:39;99385.91;;;18.20;40.96
66801;BME280;53703;50.326;19.122;2023-04-03T09:10:38;99387.70;;;18.21;40.88
66801;BME280;53703;50.326;19.122;2023-04-03T09:13:39;99389.82;;;18.21;40.95
66801;BME280;53703;50.326;19.122;2023-04-03T09:16:49;99387.48;;;18.18;41.75
66801;BME280;53703;50.326;19.122;2023-04-03T09:19:51;99386.04;;;18.27;42.29
66801;BME280;53703;50.326;19.122;2023-04-03T09:22:48;99386.82;;;18.23;41.68
66801;BME280;53703;50.326;19.122;2023-04-03T09:25:45;99381.23;;;18.32;41.70
66801;BME280;53703;50.326;19.122;2023-04-03T09:28:43;99385.84;;;17.92;40.84
66801;BME280;53703;50.326;19.122;2023-04-03T09:31:44;99396.90;;;13.89;41.34
66801;BME280;53703;50.326;19.122;2023-04-03T09:34:41;99393.83;;;12.64;40.89
66801;BME280;53703;50.326;19.122;2023-04-03T09:37:41;99393.48;;;15.03;42.22
66801;BME280;53703;50.326;19.122;2023-04-03T09:40:39;99398.31;;;17.21;38.82
66801;BME280;53703;50.326;19.122;2023-04-03T09:43:34;99395.71;;;17.65;39.46
66801;BME280;53703;50.326;19.122;2023-04-03T09:46:32;99397.60;;;17.76;39.62
66801;BME280;53703;50.326;19.122;2023-04-03T09:49:27;99398.38;;;17.84;39.69
66801;BME280;53703;50.326;19.122;2023-04-03T09:52:27;99398.34;;;17.87;39.76
66801;BME280;53703;50.326;19.122;2023-04-03T09:55:23;99394.85;;;17.84;40.18
66801;BME280;53703;50.326;19.122;2023-04-03T09:58:37;99401.64;;;17.88;40.21
66801;BME280;53703;50.326;19.122;2023-04-03T10:01:43;99400.18;;;17.91;40.28
66801;BME280;53703;50.326;19.122;2023-04-03T10:04:49;99410.19;;;17.91;40.04
66801;BME280;53703;50.326;19.122;2023-04-03T10:08:15;99404.50;;;17.96;40.14
66801;BME280;53703;50.326;19.122;2023-04-03T10:11:15;99406.61;;;17.94;39.31
66801;BME280;53703;50.326;19.122;2023-04-03T10:14:32;99409.25;;;17.92;39.88
66801;BME280;53703;50.326;19.122;2023-04-03T10:17:36;99406.00;;;17.95;39.78
66801;BME280;53703;50.326;19.122;2023-04-03T10:20:39;99401.77;;;17.97;40.24
66801;BME280;53703;50.326;19.122;2023-04-03T10:23:30;99399.31;;;17.97;40.08
66801;BME280;53703;50.326;19.122;2023-04-03T10:26:35;99397.08;;;17.96;40.16
66801;BME280;53703;50.326;19.122;2023-04-03T10:29:43;99399.03;;;18.01;40.31
66801;BME280;53703;50.326;19.122;2023-04-03T10:32:52;99397.16;;;18.11;39.74
66801;BME280;53703;50.326;19.122;2023-04-03T10:36:00;99393.94;;;18.14;40.33
66801;BME280;53703;50.326;19.122;2023-04-03T10:39:04;99402.74;;;17.94;39.78
66801;BME280;53703;50.326;19.122;2023-04-03T10:42:11;99401.25;;;18.01;40.27
66801;BME280;53703;50.326;19.122;2023-04-03T10:45:26;99400.94;;;18.13;39.91
66801;BME280;53703;50.326;19.122;2023-04-03T10:48:35;99397.30;;;18.14;39.78
66801;BME280;53703;50.326;19.122;2023-04-03T10:51:36;99396.84;;;18.19;39.76
66801;BME280;53703;50.326;19.122;2023-04-03T10:54:37;99391.33;;;18.15;40.16
66801;BME280;53703;50.326;19.122;2023-04-03T10:57:32;99388.70;;;18.05;39.83
66801;BME280;53703;50.326;19.122;2023-04-03T11:00:33;99392.39;;;18.05;39.75
66801;BME280;53703;50.326;19.122;2023-04-03T11:03:36;99387.63;;;18.01;39.88
66801;BME280;53703;50.326;19.122;2023-04-03T11:06:39;99383.53;;;18.10;39.83
66801;BME280;53703;50.326;19.122;2023-04-03T11:09:39;99382.14;;;18.03;40.00
66801;BME280;53703;50.326;19.122;2023-04-03T11:12:40;99384.35;;;18.01;40.05
66801;BME280;53703;50.326;19.122;2023-04-03T11:15:36;99376.45;;;18.03;39.80
66801;BME280;53703;50.326;19.122;2023-04-03T11:18:37;99384.52;;;18.11;40.18
66801;BME280;53703;50.326;19.122;2023-04-03T11:21:37;99382.96;;;17.57;37.60
66801;BME280;53703;50.326;19.122;2023-04-03T11:24:36;99384.95;;;17.35;38.00
66801;BME280;53703;50.326;19.122;2023-04-03T11:27:35;99382.44;;;17.93;38.18
66801;BME280;53703;50.326;19.122;2023-04-03T11:30:37;99383.14;;;17.95;39.14
66801;BME280;53703;50.326;19.122;2023-04-03T11:33:49;99379.66;;;17.89;39.16
66801;BME280;53703;50.326;19.122;2023-04-03T11:36:47;99378.54;;;17.92;39.01
66801;BME280;53703;50.326;19.122;2023-04-03T11:39:50;99375.48;;;17.89;39.06
66801;BME280;53703;50.326;19.122;2023-04-03T11:42:49;99378.83;;;17.90;39.00
66801;BME280;53703;50.326;19.122;2023-04-03T11:45:56;99372.15;;;17.87;39.11
66801;BME280;53703;50.326;19.122;2023-04-03T11:48:54;99378.79;;;17.87;39.15
66801;BME280;53703;50.326;19.122;2023-04-03T11:51:48;99375.94;;;17.85;39.06
66801;BME280;53703;50.326;19.122;2023-04-03T11:54:52;99380.84;;;17.85;38.99
66801;BME280;53703;50.326;19.122;2023-04-03T11:58:13;99367.20;;;17.85;39.14
66801;BME280;53703;50.326;19.122;2023-04-03T12:01:43;99374.84;;;17.85;39.11
66801;BME280;53703;50.326;19.122;2023-04-03T12:04:37;99368.63;;;17.85;39.09
66801;BME280;53703;50.326;19.122;2023-04-03T12:07:31;99369.59;;;17.81;39.29
66801;BME280;53703;50.326;19.122;2023-04-03T12:10:25;99370.41;;;17.77;39.04
66801;BME280;53703;50.326;19.122;2023-04-03T12:13:24;99374.14;;;17.87;39.48
66801;BME280;53703;50.326;19.122;2023-04-03T12:16:24;99379.01;;;17.96;38.89
66801;BME280;53703;50.326;19.122;2023-04-03T12:19:37;99381.27;;;17.91;39.25
66801;BME280;53703;50.326;19.122;2023-04-03T12:22:35;99385.02;;;17.83;39.22
66801;BME280;53703;50.326;19.122;2023-04-03T12:25:51;99383.06;;;17.83;39.45
66801;BME280;53703;50.326;19.122;2023-04-03T12:28:45;99386.56;;;17.82;39.07
66801;BME280;53703;50.326;19.122;2023-04-03T12:31:48;99382.94;;;17.78;39.40
66801;BME280;53703;50.326;19.122;2023-04-03T12:35:01;99380.96;;;17.86;39.52
66801;BME280;53703;50.326;19.122;2023-04-03T12:37:56;99375.55;;;17.85;39.48
66801;BME280;53703;50.326;19.122;2023-04-03T12:40:55;99368.42;;;17.76;39.69
66801;BME280;53703;50.326;19.122;2023-04-03T12:44:05;99367.69;;;17.75;39.82
66801;BME280;53703;50.326;19.122;2023-04-03T12:47:16;99370.17;;;17.69;39.86
66801;BME280;53703;50.326;19.122;2023-04-03T12:50:23;99364.88;;;17.72;39.95
66801;BME280;53703;50.326;19.122;2023-04-03T12:53:19;99362.15;;;17.70;39.94
66801;BME280;53703;50.326;19.122;2023-04-03T12:56:26;99358.47;;;17.68;40.05
66801;BME280;53703;50.326;19.122;2023-04-03T12:59:25;99351.37;;;17.69;40.21
66801;BME280;53703;50.326;19.122;2023-04-03T13:02:25;99349.22;;;17.72;40.19
66801;BME280;53703;50.326;19.122;2023-04-03T13:05:21;99345.77;;;17.72;40.31
66801;BME280;53703;50.326;19.122;2023-04-03T13:08:16;99345.32;;;17.81;39.99
66801;BME280;53703;50.326;19.122;2023-04-03T13:11:13;99342.10;;;17.81;39.84
66801;BME280;53703;50.326;19.122;2023-04-03T13:14:17;99344.25;;;17.79;40.01
66801;BME280;53703;50.326;19.122;2023-04-03T13:17:17;99343.29;;;17.79;40.22
66801;BME280;53703;50.326;19.122;2023-04-03T13:20:17;99347.48;;;17.85;40.31
66801;BME280;53703;50.326;19.122;2023-04-03T13:23:13;99350.63;;;17.87;40.19
66801;BME280;53703;50.326;19.122;2023-04-03T13:26:11;99350.24;;;17.91;40.13
66801;BME280;53703;50.326;19.122;2023-04-03T13:29:07;99346.95;;;17.95;40.18
66801;BME280;53703;50.326;19.122;2023-04-03T13:32:23;99349.55;;;18.03;40.08
66801;BME280;53703;50.326;19.122;2023-04-03T13:35:36;99359.18;;;18.17;39.69
66801;BME280;53703;50.326;19.122;2023-04-03T13:38:33;99359.52;;;18.09;39.89
66801;BME280;53703;50.326;19.122;2023-04-03T13:41:32;99360.33;;;18.08;40.17
66801;BME280;53703;50.326;19.122;2023-04-03T13:44:37;99369.37;;;18.19;39.83
66801;BME280;53703;50.326;19.122;2023-04-03T13:47:42;99369.65;;;18.32;39.61
66801;BME280;53703;50.326;19.122;2023-04-03T13:50:55;99372.77;;;18.29;39.67
66801;BME280;53703;50.326;19.122;2023-04-03T13:53:54;99366.59;;;18.33;39.51
66801;BME280;53703;50.326;19.122;2023-04-03T13:56:52;99367.58;;;18.31;39.45
66801;BME280;53703;50.326;19.122;2023-04-03T13:59:36;99368.75;;;18.48;39.61
66801;BME280;53703;50.326;19.122;2023-04-03T14:02:34;99371.27;;;18.41;39.34
66801;BME280;53703;50.326;19.122;2023-04-03T14:05:33;99371.00;;;18.30;39.65
66801;BME280;53703;50.326;19.122;2023-04-03T14:08:27;99364.70;;;18.30;39.65
66801;BME280;53703;50.326;19.122;2023-04-03T14:11:35;99364.69;;;18.44;39.30
66801;BME280;53703;50.326;19.122;2023-04-03T14:14:32;99367.19;;;18.58;38.85
66801;BME280;53703;50.326;19.122;2023-04-03T14:17:29;99365.45;;;18.61;38.77
66801;BME280;53703;50.326;19.122;2023-04-03T14:20:26;99369.63;;;18.67;38.83
66801;BME280;53703;50.326;19.122;2023-04-03T14:23:20;99358.50;;;18.73;38.33
66801;BME280;53703;50.326;19.122;2023-04-03T14:26:16;99359.00;;;18.80;38.41
66801;BME280;53703;50.326;19.122;2023-04-03T14:29:28;99348.57;;;18.78;38.60
66801;BME280;53703;50.326;19.122;2023-04-03T14:32:24;99350.95;;;18.89;38.92
66801;BME280;53703;50.326;19.122;2023-04-03T14:35:19;99359.63;;;19.02;39.05
66801;BME280;53703;50.326;19.122;2023-04-03T14:38:23;99356.68;;;18.97;39.34
66801;BME280;53703;50.326;19.122;2023-04-03T14:41:21;99360.65;;;18.93;39.51
66801;BME280;53703;50.326;19.122;2023-04-03T14:44:14;99357.85;;;19.01;40.10
66801;BME280;53703;50.326;19.122;2023-04-03T14:47:12;99362.45;;;19.05;40.08
66801;BME280;53703;50.326;19.122;2023-04-03T14:50:25;99364.38;;;19.04;39.64
66801;BME280;53703;50.326;19.122;2023-04-03T14:53:21;99373.00;;;18.94;41.31
66801;BME280;53703;50.326;19.122;2023-04-03T14:56:31;99372.48;;;18.90;41.78
66801;BME280;53703;50.326;19.122;2023-04-03T14:59:24;99374.98;;;18.87;43.06
66801;BME280;53703;50.326;19.122;2023-04-03T15:02:29;99373.10;;;18.85;43.69
66801;BME280;53703;50.326;19.122;2023-04-03T15:05:23;99376.85;;;18.80;43.51
66801;BME280;53703;50.326;19.122;2023-04-03T15:08:22;99373.79;;;18.85;43.03
66801;BME280;53703;50.326;19.122;2023-04-03T15:11:17;99377.84;;;18.83;41.92
66801;BME280;53703;50.326;19.122;2023-04-03T15:14:12;99378.08;;;18.77;42.50
66801;BME280;53703;50.326;19.122;2023-04-03T15:17:21;99375.43;;;18.71;42.75
66801;BME280;53703;50.326;19.122;2023-04-03T15:20:18;99378.84;;;18.70;42.80
66801;BME280;53703;50.326;19.122;2023-04-03T15:23:14;99377.71;;;18.69;42.60
66801;BME280;53703;50.326;19.122;2023-04-03T15:26:08;99374.17;;;18.68;42.73
66801;BME280;53703;50.326;19.122;2023-04-03T15:29:02;99372.81;;;18.67;42.46
66801;BME280;53703;50.326;19.122;2023-04-03T15:31:56;99375.84;;;18.72;42.61